Time;durP1;ratioP1;P1;durP2;ratioP2;P2;SDS_P1;SDS_P2;PMS_P1;PMS_P2;Temp;Humidity;BMP_temperature;BMP_pressure;BME280_temperature;BME280_humidity;BME280_pressure;Samples;Min_cycle;Max_cycle;Signal;HPM_P1;HPM_P2
2023/02/11 00:01:08;;;;;;;18.55;11.23;;;;;;;;;;5014861;28;20671;-62
2023/02/11 00:03:34;;;;;;;23.85;12.13;;;;;;;;;;5015125;28;20154;-60
2023/02/11 00:06:01;;;;;;;25.27;12.32;;;;;;;;;;5014307;28;20213;-63
2023/02/11 00:08:27;;;;;;;23.77;12.45;;;;;;;;;;5014601;28;20166;-62
2023/02/11 00:10:53;;;;;;;20.83;11.57;;;;;;;;;;5015008;28;20181;-61
2023/02/11 00:13:19;;;;;;;21.60;12.77;;;;;;;;;;5017284;28;20178;-60
2023/02/11 00:15:45;;;;;;;23.50;12.60;;;;;;;;;;5015582;28;20170;-61
2023/02/11 00:18:12;;;;;;;20.67;11.82;;;;;;;;;;5014725;28;20162;-61
2023/02/11 00:20:38;;;;;;;22.42;12.13;;;;;;;;;;5014603;28;20170;-61
2023/02/11 00:23:04;;;;;;;20.40;11.40;;;;;;;;;;5013585;28;20597;-61
2023/02/11 00:25:30;;;;;;;19.05;12.57;;;;;;;;;;5013708;28;20196;-61
2023/02/11 00:27:56;;;;;;;23.60;12.10;;;;;;;;;;5014010;28;20271;-61
2023/02/11 00:30:22;;;;;;;24.73;12.07;;;;;;;;;;5013477;28;20179;-63
2023/02/11 00:32:48;;;;;;;19.55;12.25;;;;;;;;;;5012995;28;20258;-60
2023/02/11 00:35:14;;;;;;;20.27;12.27;;;;;;;;;;5012884;28;20201;-59
2023/02/11 00:37:40;;;;;;;22.83;11.88;;;;;;;;;;5012813;28;20179;-62
2023/02/11 00:40:06;;;;;;;18.15;11.20;;;;;;;;;;5012700;28;20517;-61
2023/02/11 00:42:34;;;;;;;18.55;11.02;;;;;;;;;;5013066;28;20174;-61
2023/02/11 00:45:00;;;;;;;19.55;11.05;;;;;;;;;;5012945;28;20204;-61
2023/02/11 00:47:26;;;;;;;16.98;10.13;;;;;;;;;;5012587;28;20532;-63
2023/02/11 00:49:52;;;;;;;18.73;10.80;;;;;;;;;;5013406;28;20171;-62
2023/02/11 00:52:18;;;;;;;19.25;9.90;;;;;;;;;;5012753;28;20253;-63
2023/02/11 00:54:44;;;;;;;19.48;10.35;;;;;;;;;;5013034;28;20170;-60
2023/02/11 00:57:10;;;;;;;18.13;10.35;;;;;;;;;;5012928;28;20201;-62
2023/02/11 00:59:36;;;;;;;20.88;10.80;;;;;;;;;;5012157;28;20170;-63
2023/02/11 01:02:02;;;;;;;17.05;10.27;;;;;;;;;;5012693;28;20577;-63
2023/02/11 01:04:28;;;;;;;15.80;9.15;;;;;;;;;;5013044;28;20487;-62
2023/02/11 01:06:53;;;;;;;18.60;9.52;;;;;;;;;;5012441;28;20198;-61
2023/02/11 01:09:20;;;;;;;18.05;10.70;;;;;;;;;;5012484;28;20162;-63
2023/02/11 01:11:46;;;;;;;17.70;10.23;;;;;;;;;;5012776;28;20185;-61
2023/02/11 01:14:12;;;;;;;18.30;10.68;;;;;;;;;;5012817;28;20162;-61
2023/02/11 01:16:39;;;;;;;17.42;10.75;;;;;;;;;;5013035;28;20171;-62
2023/02/11 01:19:05;;;;;;;17.45;9.93;;;;;;;;;;5012585;28;20189;-61
2023/02/11 01:21:31;;;;;;;15.45;8.65;;;;;;;;;;5012590;28;20170;-62
2023/02/11 01:23:57;;;;;;;16.38;9.52;;;;;;;;;;5012930;28;20251;-61
2023/02/11 01:26:23;;;;;;;17.83;10.18;;;;;;;;;;5012427;28;20198;-62
2023/02/11 01:28:49;;;;;;;19.05;8.63;;;;;;;;;;5012259;28;20173;-61
2023/02/11 01:31:15;;;;;;;19.90;10.57;;;;;;;;;;5012440;28;20170;-62
2023/02/11 01:33:41;;;;;;;15.70;9.95;;;;;;;;;;5012458;28;20264;-62
2023/02/11 01:36:08;;;;;;;16.27;10.02;;;;;;;;;;5012383;28;20270;-62
2023/02/11 01:38:34;;;;;;;15.48;10.10;;;;;;;;;;5012066;28;20231;-63
2023/02/11 01:41:08;;;;;;;17.40;10.88;;;;;;;;;;5013755;28;20174;-63
2023/02/11 01:43:35;;;;;;;15.00;10.20;;;;;;;;;;5013271;28;20200;-61
2023/02/11 01:46:19;;;;;;;16.58;9.75;;;;;;;;;;5013391;28;20209;-61
2023/02/11 01:48:48;;;;;;;16.50;10.20;;;;;;;;;;5013826;28;20493;-62
2023/02/11 01:51:14;;;;;;;18.17;11.15;;;;;;;;;;5013156;28;20192;-61
2023/02/11 01:59:14;;;;;;;15.63;10.40;;;;;;;;;;5012245;28;20166;-62
2023/02/11 02:01:44;;;;;;;15.23;10.10;;;;;;;;;;5011653;28;20269;-62
2023/02/11 02:04:11;;;;;;;15.77;10.20;;;;;;;;;;5011950;28;20510;-62
2023/02/11 02:06:43;;;;;;;17.20;10.85;;;;;;;;;;5011880;28;20190;-63
2023/02/11 02:09:13;;;;;;;21.65;10.70;;;;;;;;;;5012184;28;20299;-62
2023/02/11 02:11:39;;;;;;;20.02;10.93;;;;;;;;;;5012555;28;20159;-62
2023/02/11 02:14:05;;;;;;;18.33;10.77;;;;;;;;;;5015476;28;20182;-62
2023/02/11 02:16:35;;;;;;;21.58;10.80;;;;;;;;;;5015197;28;20179;-62
2023/02/11 02:19:19;;;;;;;17.75;11.05;;;;;;;;;;5015320;28;20182;-61
2023/02/11 02:21:57;;;;;;;17.60;10.63;;;;;;;;;;5015179;28;20262;-61
2023/02/11 02:24:42;;;;;;;17.00;10.70;;;;;;;;;;5015066;28;20272;-62
2023/02/11 02:27:26;;;;;;;18.63;11.25;;;;;;;;;;5015341;28;20205;-60
2023/02/11 02:30:11;;;;;;;19.27;11.30;;;;;;;;;;5016476;28;20185;-62
2023/02/11 02:32:55;;;;;;;20.05;11.50;;;;;;;;;;5015162;28;20167;-63
2023/02/11 02:35:30;;;;;;;18.52;11.88;;;;;;;;;;5014768;28;20704;-63
2023/02/11 02:38:01;;;;;;;20.83;11.57;;;;;;;;;;5014975;28;20170;-63
2023/02/11 02:40:36;;;;;;;21.83;11.40;;;;;;;;;;5018538;28;20154;-61
2023/02/11 02:43:02;;;;;;;19.17;11.60;;;;;;;;;;5032371;28;20214;-62
2023/02/11 02:45:28;;;;;;;17.77;10.98;;;;;;;;;;5029434;28;20214;-62
2023/02/11 02:47:55;;;;;;;22.30;12.70;;;;;;;;;;5015150;28;20202;-61
2023/02/11 02:50:25;;;;;;;22.50;11.48;;;;;;;;;;5014921;28;20316;-62
2023/02/11 02:53:09;;;;;;;18.10;12.50;;;;;;;;;;5014856;28;20170;-63
2023/02/11 02:56:00;;;;;;;19.77;12.20;;;;;;;;;;5015006;28;20174;-62
2023/02/11 02:58:37;;;;;;;21.23;12.48;;;;;;;;;;5014851;28;20159;-63
2023/02/11 03:01:10;;;;;;;20.35;11.77;;;;;;;;;;5014723;28;22283;-62
2023/02/11 03:04:00;;;;;;;21.23;11.40;;;;;;;;;;5014618;28;20174;-62
2023/02/11 03:06:43;;;;;;;18.70;11.65;;;;;;;;;;5014730;28;20285;-62
2023/02/11 03:09:14;;;;;;;17.83;10.32;;;;;;;;;;5014770;28;20241;-62
2023/02/11 03:11:40;;;;;;;21.77;11.43;;;;;;;;;;5014672;28;20162;-62
2023/02/11 03:14:09;;;;;;;17.67;10.73;;;;;;;;;;5014459;28;20241;-63
2023/02/11 03:16:37;;;;;;;20.50;12.40;;;;;;;;;;5013951;28;20618;-62
2023/02/11 03:19:15;;;;;;;24.33;11.57;;;;;;;;;;5014475;28;20178;-62
2023/02/11 03:21:42;;;;;;;21.67;11.90;;;;;;;;;;5014204;28;20170;-62
2023/02/11 03:24:11;;;;;;;23.27;11.73;;;;;;;;;;5013807;28;20170;-62
2023/02/11 03:26:40;;;;;;;21.83;12.43;;;;;;;;;;5014120;28;20226;-61
2023/02/11 03:29:18;;;;;;;17.50;11.75;;;;;;;;;;5014430;28;20166;-61
2023/02/11 03:31:50;;;;;;;28.33;12.40;;;;;;;;;;5014023;28;20170;-60
2023/02/11 03:34:16;;;;;;;23.52;12.93;;;;;;;;;;5014305;28;20158;-62
2023/02/11 03:36:54;;;;;;;25.98;13.15;;;;;;;;;;5013988;28;20319;-62
2023/02/11 03:39:23;;;;;;;21.52;13.18;;;;;;;;;;5014140;28;20162;-61
2023/02/11 03:41:50;;;;;;;26.10;12.70;;;;;;;;;;5013885;28;20174;-61
2023/02/11 03:44:16;;;;;;;19.60;13.55;;;;;;;;;;5013958;28;20197;-62
2023/02/11 03:46:45;;;;;;;26.33;13.43;;;;;;;;;;5013587;28;20200;-61
2023/02/11 03:49:13;;;;;;;26.17;13.02;;;;;;;;;;5013602;28;20163;-61
2023/02/11 03:51:39;;;;;;;22.25;12.40;;;;;;;;;;5013667;28;20243;-62
2023/02/11 03:54:08;;;;;;;26.83;12.88;;;;;;;;;;5013415;28;20171;-61
2023/02/11 03:56:40;;;;;;;22.77;13.07;;;;;;;;;;5013525;28;20198;-62
2023/02/11 03:59:07;;;;;;;24.88;12.98;;;;;;;;;;5013473;28;20619;-63
2023/02/11 04:01:33;;;;;;;22.02;13.55;;;;;;;;;;5013236;28;20197;-63
2023/02/11 04:03:59;;;;;;;26.42;13.82;;;;;;;;;;5013757;28;20170;-59
2023/02/11 04:06:25;;;;;;;28.98;14.15;;;;;;;;;;5013510;28;20194;-62
2023/02/11 04:08:51;;;;;;;26.73;13.57;;;;;;;;;;5013963;28;20174;-59
2023/02/11 04:11:17;;;;;;;24.20;13.32;;;;;;;;;;5013660;28;20560;-60
2023/02/11 04:13:43;;;;;;;29.10;13.68;;;;;;;;;;5013276;28;20612;-61
2023/02/11 04:16:09;;;;;;;25.80;13.82;;;;;;;;;;5013396;28;20174;-61
2023/02/11 04:18:35;;;;;;;25.20;12.32;;;;;;;;;;5013344;28;20169;-60
2023/02/11 04:21:01;;;;;;;25.25;13.95;;;;;;;;;;5013289;28;20253;-61
2023/02/11 04:23:27;;;;;;;27.25;14.85;;;;;;;;;;5013339;28;20166;-61
2023/02/11 04:25:53;;;;;;;27.00;14.27;;;;;;;;;;5013252;28;20189;-62
2023/02/11 04:28:19;;;;;;;25.02;13.27;;;;;;;;;;5012880;28;20231;-62
2023/02/11 04:30:45;;;;;;;26.73;13.98;;;;;;;;;;5013273;28;20202;-62
2023/02/11 04:33:11;;;;;;;28.17;13.95;;;;;;;;;;5013102;28;20209;-63
2023/02/11 04:35:36;;;;;;;25.27;13.93;;;;;;;;;;5012250;28;20167;-63
2023/02/11 04:38:02;;;;;;;26.55;14.23;;;;;;;;;;5012966;28;20166;-62
2023/02/11 04:40:28;;;;;;;26.13;14.18;;;;;;;;;;5014098;28;20270;-63
2023/02/11 04:42:54;;;;;;;21.88;13.30;;;;;;;;;;5013642;28;20267;-63
2023/02/11 04:45:20;;;;;;;24.02;12.98;;;;;;;;;;5013041;28;20170;-61
2023/02/11 04:47:46;;;;;;;26.92;14.30;;;;;;;;;;5012823;28;20258;-63
2023/02/11 04:50:12;;;;;;;20.27;11.98;;;;;;;;;;5012716;28;20484;-63
2023/02/11 04:52:38;;;;;;;23.85;13.38;;;;;;;;;;5012918;28;20630;-63
2023/02/11 04:55:04;;;;;;;26.20;14.70;;;;;;;;;;5012626;28;20546;-63
2023/02/11 04:57:30;;;;;;;25.02;13.80;;;;;;;;;;5012853;28;20498;-62
2023/02/11 04:59:56;;;;;;;25.50;13.73;;;;;;;;;;5013135;28;20166;-62
2023/02/11 05:02:22;;;;;;;28.98;14.50;;;;;;;;;;5012557;28;20218;-62
2023/02/11 05:04:48;;;;;;;30.85;13.80;;;;;;;;;;5013379;28;20268;-62
2023/02/11 05:07:14;;;;;;;24.52;14.07;;;;;;;;;;5012855;28;20186;-62
2023/02/11 05:09:40;;;;;;;27.73;14.20;;;;;;;;;;5013203;28;20580;-61
2023/02/11 05:12:06;;;;;;;22.60;13.45;;;;;;;;;;5014511;28;20596;-61
2023/02/11 05:14:32;;;;;;;27.67;14.35;;;;;;;;;;5012866;28;20205;-62
2023/02/11 05:16:58;;;;;;;24.55;13.40;;;;;;;;;;5013489;28;20173;-63
2023/02/11 05:19:24;;;;;;;25.33;13.38;;;;;;;;;;5013042;28;20194;-62
2023/02/11 05:21:50;;;;;;;28.90;13.65;;;;;;;;;;5012541;28;20217;-61
2023/02/11 05:24:16;;;;;;;20.92;12.35;;;;;;;;;;5012522;28;20170;-62
2023/02/11 05:26:42;;;;;;;24.17;11.90;;;;;;;;;;5012897;28;20633;-61
2023/02/11 05:29:08;;;;;;;20.73;11.65;;;;;;;;;;5025842;28;20171;-62
2023/02/11 05:31:33;;;;;;;18.38;11.40;;;;;;;;;;5026305;28;20163;-62
2023/02/11 05:34:02;;;;;;;19.52;10.88;;;;;;;;;;5014308;28;20197;-61
2023/02/11 05:36:28;;;;;;;19.27;11.80;;;;;;;;;;5012403;28;20239;-62
2023/02/11 05:38:54;;;;;;;24.10;12.38;;;;;;;;;;5012629;28;20170;-61
2023/02/11 05:41:20;;;;;;;24.40;11.70;;;;;;;;;;5012329;28;20174;-61
2023/02/11 05:43:52;;;;;;;25.67;12.45;;;;;;;;;;5012213;28;20174;-61
2023/02/11 05:46:18;;;;;;;24.05;11.88;;;;;;;;;;5014573;28;20205;-63
2023/02/11 05:48:44;;;;;;;20.65;11.90;;;;;;;;;;5015932;28;20166;-60
2023/02/11 05:51:10;;;;;;;19.27;10.48;;;;;;;;;;5015646;28;20609;-61
2023/02/11 05:53:36;;;;;;;21.40;11.98;;;;;;;;;;5015847;28;20248;-61
2023/02/11 05:56:02;;;;;;;22.42;12.18;;;;;;;;;;5015752;28;20162;-62
2023/02/11 05:58:28;;;;;;;20.77;11.32;;;;;;;;;;5015181;28;20609;-62
2023/02/11 06:00:54;;;;;;;18.48;10.90;;;;;;;;;;5015395;28;20179;-63
2023/02/11 06:03:20;;;;;;;19.50;11.63;;;;;;;;;;5015177;28;20197;-62
2023/02/11 06:05:46;;;;;;;21.83;12.05;;;;;;;;;;5015465;28;20179;-63
2023/02/11 06:08:12;;;;;;;25.35;10.77;;;;;;;;;;5015087;28;20198;-63
2023/02/11 06:10:41;;;;;;;20.38;11.35;;;;;;;;;;5016020;28;20170;-59
2023/02/11 06:13:07;;;;;;;17.27;9.57;;;;;;;;;;5015612;28;20170;-60
2023/02/11 06:15:33;;;;;;;22.50;10.48;;;;;;;;;;5015552;28;20182;-59
2023/02/11 06:17:59;;;;;;;20.20;10.23;;;;;;;;;;5015325;28;20220;-62
2023/02/11 06:20:25;;;;;;;18.50;9.73;;;;;;;;;;5015173;28;20227;-62
2023/02/11 06:22:50;;;;;;;18.67;9.68;;;;;;;;;;5015213;28;20177;-62
2023/02/11 06:25:17;;;;;;;21.48;10.93;;;;;;;;;;5015047;28;20638;-63
2023/02/11 06:27:42;;;;;;;22.27;11.20;;;;;;;;;;5015051;28;20198;-63
2023/02/11 06:30:09;;;;;;;19.92;10.40;;;;;;;;;;5015011;28;20498;-62
2023/02/11 06:32:35;;;;;;;19.63;9.82;;;;;;;;;;5015236;28;20251;-60
2023/02/11 06:35:01;;;;;;;19.55;11.20;;;;;;;;;;5014968;28;20510;-60
2023/02/11 06:37:27;;;;;;;24.38;11.30;;;;;;;;;;5015078;28;20178;-62
2023/02/11 06:39:53;;;;;;;23.30;11.27;;;;;;;;;;5014975;28;20173;-63
2023/02/11 06:42:19;;;;;;;19.77;10.68;;;;;;;;;;5014851;28;20656;-62
2023/02/11 06:44:45;;;;;;;26.45;10.70;;;;;;;;;;5015106;28;20174;-62
2023/02/11 06:47:11;;;;;;;18.80;10.48;;;;;;;;;;5014503;28;20645;-62
2023/02/11 06:49:37;;;;;;;23.80;10.07;;;;;;;;;;5014719;28;20618;-62
2023/02/11 06:52:03;;;;;;;22.40;11.73;;;;;;;;;;5014753;28;20623;-62
2023/02/11 06:54:29;;;;;;;23.13;10.80;;;;;;;;;;5014459;28;20163;-62
2023/02/11 06:56:55;;;;;;;21.60;10.90;;;;;;;;;;5013787;28;20171;-63
2023/02/11 06:59:21;;;;;;;18.70;10.70;;;;;;;;;;5014475;28;20174;-62
2023/02/11 07:01:47;;;;;;;17.58;9.80;;;;;;;;;;5014327;28;20193;-62
2023/02/11 07:04:16;;;;;;;19.65;9.80;;;;;;;;;;5014567;28;20485;-63
2023/02/11 07:06:42;;;;;;;26.42;10.77;;;;;;;;;;5014268;28;20233;-61
2023/02/11 07:09:08;;;;;;;23.02;10.40;;;;;;;;;;5014456;28;20163;-63
2023/02/11 07:11:34;;;;;;;19.88;9.65;;;;;;;;;;5014517;28;20257;-63
2023/02/11 07:14:05;;;;;;;21.58;9.20;;;;;;;;;;5014397;28;20219;-61
2023/02/11 07:16:31;;;;;;;22.15;9.95;;;;;;;;;;5014404;28;20170;-62
2023/02/11 07:18:57;;;;;;;22.85;9.98;;;;;;;;;;5014254;28;20273;-62
2023/02/11 07:21:24;;;;;;;21.90;9.43;;;;;;;;;;5014923;28;20186;-61
2023/02/11 07:23:50;;;;;;;18.10;8.40;;;;;;;;;;5014195;28;20189;-63
2023/02/11 07:26:17;;;;;;;18.35;8.05;;;;;;;;;;5014144;28;20217;-63
2023/02/11 07:28:43;;;;;;;20.23;8.90;;;;;;;;;;5014150;28;20167;-62
2023/02/11 07:31:14;;;;;;;17.25;8.13;;;;;;;;;;5014134;28;20235;-62
2023/02/11 07:33:40;;;;;;;16.33;8.38;;;;;;;;;;5014144;28;20154;-62
2023/02/11 07:36:07;;;;;;;18.92;8.65;;;;;;;;;;5013753;28;20170;-62
2023/02/11 07:38:33;;;;;;;18.02;8.27;;;;;;;;;;5014064;28;20163;-61
2023/02/11 07:41:03;;;;;;;19.48;8.35;;;;;;;;;;5013869;28;20170;-63
2023/02/11 07:43:30;;;;;;;18.95;8.60;;;;;;;;;;5014129;28;20166;-63
2023/02/11 07:45:56;;;;;;;21.50;8.65;;;;;;;;;;5013823;28;20178;-62
2023/02/11 07:48:22;;;;;;;20.15;7.22;;;;;;;;;;5013918;28;20163;-61
2023/02/11 07:50:48;;;;;;;14.77;7.97;;;;;;;;;;5013566;28;20169;-63
2023/02/11 07:53:14;;;;;;;18.83;8.98;;;;;;;;;;5013851;28;20620;-61
2023/02/11 07:55:42;;;;;;;22.13;7.82;;;;;;;;;;5013835;28;20174;-62
2023/02/11 07:58:07;;;;;;;20.55;7.95;;;;;;;;;;5014008;28;20198;-60
2023/02/11 08:00:33;;;;;;;16.20;8.05;;;;;;;;;;5013762;28;20173;-58
2023/02/11 08:03:01;;;;;;;25.95;8.95;;;;;;;;;;5013421;28;20247;-60
2023/02/11 08:05:27;;;;;;;18.52;7.47;;;;;;;;;;5014092;28;20257;-60
2023/02/11 08:07:53;;;;;;;16.88;7.55;;;;;;;;;;5013317;28;20589;-61
2023/02/11 08:10:19;;;;;;;19.38;8.18;;;;;;;;;;5013146;28;20163;-61
2023/02/11 08:12:45;;;;;;;19.80;7.68;;;;;;;;;;5016114;28;20170;-61
2023/02/11 08:15:11;;;;;;;19.38;8.23;;;;;;;;;;5014619;28;20185;-62
2023/02/11 08:17:37;;;;;;;16.83;8.05;;;;;;;;;;5013463;28;20158;-62
2023/02/11 08:20:04;;;;;;;15.55;7.47;;;;;;;;;;5013417;28;20491;-63
2023/02/11 08:22:33;;;;;;;20.58;9.00;;;;;;;;;;5013391;28;20288;-62
2023/02/11 08:24:59;;;;;;;21.98;8.95;;;;;;;;;;5016306;28;20166;-60
2023/02/11 08:27:25;;;;;;;13.93;7.05;;;;;;;;;;5013675;28;20202;-61
2023/02/11 08:29:55;;;;;;;16.90;8.05;;;;;;;;;;5015957;28;20755;-61
2023/02/11 08:32:24;;;;;;;16.20;7.82;;;;;;;;;;5015391;28;20174;-61
2023/02/11 08:34:51;;;;;;;16.17;8.25;;;;;;;;;;5014477;28;20182;-60
2023/02/11 08:37:17;;;;;;;16.95;8.00;;;;;;;;;;5014530;28;20170;-61
2023/02/11 08:39:43;;;;;;;16.67;7.45;;;;;;;;;;5013400;28;20527;-61
2023/02/11 08:42:09;;;;;;;17.73;7.68;;;;;;;;;;5013304;28;20512;-62
2023/02/11 08:44:35;;;;;;;16.63;7.35;;;;;;;;;;5012959;28;20170;-62
2023/02/11 08:47:01;;;;;;;13.35;7.38;;;;;;;;;;5013029;28;20190;-62
2023/02/11 08:49:29;;;;;;;14.38;6.60;;;;;;;;;;5012962;28;20508;-62
2023/02/11 08:51:55;;;;;;;13.15;5.47;;;;;;;;;;5013046;28;20174;-63
2023/02/11 08:54:21;;;;;;;14.98;7.05;;;;;;;;;;5012699;28;20203;-63
2023/02/11 08:56:50;;;;;;;14.70;6.95;;;;;;;;;;5012797;28;20247;-63
2023/02/11 08:59:16;;;;;;;17.85;7.28;;;;;;;;;;5012622;28;20271;-62
2023/02/11 09:01:42;;;;;;;16.15;6.15;;;;;;;;;;5012650;28;20640;-62
2023/02/11 09:04:09;;;;;;;13.77;6.30;;;;;;;;;;5012768;28;20182;-62
2023/02/11 09:06:35;;;;;;;16.65;6.78;;;;;;;;;;5012556;28;20239;-62
2023/02/11 09:09:01;;;;;;;13.13;6.10;;;;;;;;;;5012384;28;20166;-62
2023/02/11 09:11:29;;;;;;;14.88;6.30;;;;;;;;;;5013007;28;20178;-62
2023/02/11 09:13:56;;;;;;;14.68;7.05;;;;;;;;;;5012648;28;20253;-62
2023/02/11 09:16:23;;;;;;;13.93;6.25;;;;;;;;;;5012669;28;20231;-63
2023/02/11 09:18:50;;;;;;;10.48;5.25;;;;;;;;;;5012684;28;20180;-61
2023/02/11 09:21:17;;;;;;;12.82;5.85;;;;;;;;;;5012083;28;20174;-61
2023/02/11 09:23:46;;;;;;;11.65;5.25;;;;;;;;;;5012384;28;20648;-59
2023/02/11 09:26:14;;;;;;;11.50;5.85;;;;;;;;;;5012577;28;20227;-60
2023/02/11 09:28:40;;;;;;;12.45;6.07;;;;;;;;;;5012480;28;20208;-60
2023/02/11 09:31:07;;;;;;;14.95;5.78;;;;;;;;;;5012781;28;20197;-61
2023/02/11 09:33:33;;;;;;;12.25;5.70;;;;;;;;;;5012593;28;20169;-62
2023/02/11 09:36:02;;;;;;;13.27;4.97;;;;;;;;;;5012065;28;20166;-63
2023/02/11 09:38:28;;;;;;;10.25;5.00;;;;;;;;;;5012494;28;20260;-62
2023/02/11 09:40:55;;;;;;;12.10;5.30;;;;;;;;;;5012461;28;20202;-61
2023/02/11 09:43:22;;;;;;;12.45;4.80;;;;;;;;;;5012198;28;20624;-61
2023/02/11 09:45:49;;;;;;;12.05;5.25;;;;;;;;;;5012278;28;20166;-63
2023/02/11 09:48:17;;;;;;;12.30;4.93;;;;;;;;;;5012390;28;20204;-61
2023/02/11 09:50:46;;;;;;;12.40;5.30;;;;;;;;;;5012083;28;20603;-63
2023/02/11 09:53:33;;;;;;;6.70;4.30;;;;;;;;;;5012265;28;20465;-63
2023/02/11 09:56:01;;;;;;;11.07;4.57;;;;;;;;;;5012141;28;20604;-60
2023/02/11 09:58:33;;;;;;;12.82;4.63;;;;;;;;;;5011911;28;20654;-62
2023/02/11 10:01:15;;;;;;;12.20;5.18;;;;;;;;;;5012366;28;20269;-61
2023/02/11 10:03:57;;;;;;;9.20;4.50;;;;;;;;;;5012357;28;20173;-62
2023/02/11 10:06:22;;;;;;;12.40;4.65;;;;;;;;;;5012045;28;20262;-63
2023/02/11 10:09:01;;;;;;;9.13;4.65;;;;;;;;;;5012016;28;20162;-62
2023/02/11 10:11:46;;;;;;;10.45;4.22;;;;;;;;;;5011898;28;20249;-62
2023/02/11 10:14:28;;;;;;;11.13;4.57;;;;;;;;;;5011876;28;20165;-62
2023/02/11 10:17:04;;;;;;;13.30;4.10;;;;;;;;;;5012023;28;20167;-64
2023/02/11 10:19:36;;;;;;;8.35;4.10;;;;;;;;;;5011972;28;20257;-63
2023/02/11 10:22:02;;;;;;;10.70;4.35;;;;;;;;;;5012028;28;20182;-62
2023/02/11 10:24:28;;;;;;;11.27;5.03;;;;;;;;;;5011900;28;20171;-62
2023/02/11 10:26:54;;;;;;;7.90;4.57;;;;;;;;;;5011622;28;20190;-62
2023/02/11 10:29:33;;;;;;;9.75;4.75;;;;;;;;;;5011785;28;20193;-63
2023/02/11 10:32:00;;;;;;;9.85;4.43;;;;;;;;;;5011673;28;20241;-63
2023/02/11 10:34:26;;;;;;;11.50;5.40;;;;;;;;;;5015181;28;20454;-63
2023/02/11 10:36:52;;;;;;;9.00;5.00;;;;;;;;;;5015239;28;20170;-62
2023/02/11 10:39:19;;;;;;;8.65;4.57;;;;;;;;;;5015452;28;20322;-62
2023/02/11 10:41:47;;;;;;;11.57;5.13;;;;;;;;;;5014898;28;20186;-62
2023/02/11 10:44:21;;;;;;;8.85;4.32;;;;;;;;;;5014699;28;20181;-62
2023/02/11 10:46:48;;;;;;;11.68;4.45;;;;;;;;;;5014834;28;20283;-63
2023/02/11 10:49:33;;;;;;;9.23;4.20;;;;;;;;;;5014894;28;20196;-63
2023/02/11 10:52:25;;;;;;;7.45;4.30;;;;;;;;;;5014680;28;20180;-63
2023/02/11 10:55:00;;;;;;;10.00;3.95;;;;;;;;;;5027074;28;20587;-62
2023/02/11 10:57:29;;;;;;;8.75;3.70;;;;;;;;;;5023939;28;20216;-61
2023/02/11 11:00:15;;;;;;;7.20;4.15;;;;;;;;;;5015292;28;20181;-59
2023/02/11 11:02:43;;;;;;;7.07;4.25;;;;;;;;;;5027803;28;20190;-63
2023/02/11 11:05:17;;;;;;;7.60;3.80;;;;;;;;;;5014758;28;20190;-62
2023/02/11 11:07:52;;;;;;;8.98;3.90;;;;;;;;;;5014211;28;20743;-63
2023/02/11 11:10:36;;;;;;;7.53;3.38;;;;;;;;;;5015173;28;20219;-62
2023/02/11 11:13:02;;;;;;;8.88;2.85;;;;;;;;;;5014274;28;20608;-61
2023/02/11 11:15:29;;;;;;;5.82;2.67;;;;;;;;;;5014591;28;20181;-64
2023/02/11 11:18:14;;;;;;;6.63;3.13;;;;;;;;;;5014513;28;20239;-63
2023/02/11 11:20:44;;;;;;;8.30;2.95;;;;;;;;;;5014320;28;20502;-62
2023/02/11 11:23:18;;;;;;;6.13;2.40;;;;;;;;;;5014293;28;20188;-62
2023/02/11 11:25:46;;;;;;;6.00;2.20;;;;;;;;;;5014317;28;20174;-62
2023/02/11 11:28:25;;;;;;;4.43;1.75;;;;;;;;;;5013898;28;20190;-61
2023/02/11 11:30:53;;;;;;;6.93;2.08;;;;;;;;;;5014350;28;20170;-62
2023/02/11 11:33:24;;;;;;;6.13;2.25;;;;;;;;;;5014050;28;20245;-61
2023/02/11 11:35:58;;;;;;;6.53;2.17;;;;;;;;;;5014343;28;20150;-62
2023/02/11 11:38:24;;;;;;;4.20;1.80;;;;;;;;;;5014402;28;20166;-62
2023/02/11 11:41:31;;;;;;;6.97;2.55;;;;;;;;;;5014610;28;20206;-63
2023/02/11 11:44:02;;;;;;;6.45;1.65;;;;;;;;;;5095315;28;20177;-61
2023/02/11 11:46:33;;;;;;;5.30;1.92;;;;;;;;;;5095287;28;20203;-62
2023/02/11 11:49:06;;;;;;;6.63;2.40;;;;;;;;;;5095213;28;20187;-61
2023/02/11 11:51:33;;;;;;;7.40;2.40;;;;;;;;;;5095224;28;20163;-62
2023/02/11 11:54:02;;;;;;;6.95;2.92;;;;;;;;;;5096848;28;20210;-62
2023/02/11 11:56:29;;;;;;;5.82;2.40;;;;;;;;;;5096587;28;20183;-61
2023/02/11 11:58:57;;;;;;;4.78;2.08;;;;;;;;;;5097627;28;20175;-62
2023/02/11 12:01:29;;;;;;;6.78;2.67;;;;;;;;;;5080992;28;20653;-62
2023/02/11 12:04:02;;;;;;;6.88;2.22;;;;;;;;;;5097506;28;20181;-62
2023/02/11 12:06:41;;;;;;;10.25;2.17;;;;;;;;;;5096157;28;20183;-60
2023/02/11 12:09:07;;;;;;;4.85;1.48;;;;;;;;;;5095863;28;20190;-61
2023/02/11 12:11:36;;;;;;;5.03;1.83;;;;;;;;;;5094825;28;20591;-62
2023/02/11 12:14:10;;;;;;;4.93;1.77;;;;;;;;;;5074063;28;20186;-61
2023/02/11 12:16:42;;;;;;;6.22;1.67;;;;;;;;;;5014033;28;20182;-61
2023/02/11 12:19:17;;;;;;;4.45;2.05;;;;;;;;;;5013365;28;20237;-60
2023/02/11 12:22:02;;;;;;;5.38;1.50;;;;;;;;;;5013412;28;20158;-60
2023/02/11 12:24:34;;;;;;;5.00;1.30;;;;;;;;;;5013522;28;20201;-61
2023/02/11 12:27:25;;;;;;;7.07;2.28;;;;;;;;;;5013435;28;20205;-63
2023/02/11 12:30:02;;;;;;;4.55;1.33;;;;;;;;;;5013306;28;20163;-60
2023/02/11 12:32:27;;;;;;;6.63;2.17;;;;;;;;;;5013459;28;20600;-63
2023/02/11 12:35:06;;;;;;;5.80;2.00;;;;;;;;;;5013329;28;20172;-64
2023/02/11 12:37:47;;;;;;;5.18;1.70;;;;;;;;;;5013537;28;20154;-62
2023/02/11 12:40:27;;;;;;;8.65;1.70;;;;;;;;;;5013218;28;20181;-62
2023/02/11 12:43:17;;;;;;;5.00;1.70;;;;;;;;;;5013382;28;20155;-61
2023/02/11 12:46:02;;;;;;;7.35;1.77;;;;;;;;;;5014198;28;20181;-60
2023/02/11 12:48:39;;;;;;;6.35;1.60;;;;;;;;;;5013141;28;20375;-63
2023/02/11 12:51:05;;;;;;;3.90;1.92;;;;;;;;;;5012727;28;20604;-63
2023/02/11 12:53:50;;;;;;;8.07;2.03;;;;;;;;;;5012989;28;20171;-63
2023/02/11 12:56:34;;;;;;;4.70;1.13;;;;;;;;;;5012181;28;20223;-62
2023/02/11 12:59:02;;;;;;;4.72;1.35;;;;;;;;;;5012651;28;20178;-60
2023/02/11 13:01:31;;;;;;;3.97;1.70;;;;;;;;;;5012713;28;20216;-63
2023/02/11 13:04:08;;;;;;;4.97;1.67;;;;;;;;;;5012818;28;20166;-63
2023/02/11 13:06:39;;;;;;;5.95;1.40;;;;;;;;;;5012867;28;20227;-64
2023/02/11 13:09:09;;;;;;;6.93;1.35;;;;;;;;;;5012805;28;20262;-63
2023/02/11 13:11:40;;;;;;;3.22;1.10;;;;;;;;;;5012821;28;20163;-61
2023/02/11 13:14:29;;;;;;;2.78;1.00;;;;;;;;;;5012672;28;20196;-62
2023/02/11 13:16:57;;;;;;;4.78;1.20;;;;;;;;;;5012802;28;20186;-62
2023/02/11 13:19:38;;;;;;;4.35;1.42;;;;;;;;;;5012528;28;20181;-62
2023/02/11 13:22:10;;;;;;;6.00;1.02;;;;;;;;;;5012739;28;20185;-61
2023/02/11 13:24:39;;;;;;;5.47;1.27;;;;;;;;;;5012540;28;20509;-59
2023/02/11 13:27:08;;;;;;;5.85;1.38;;;;;;;;;;5012266;28;20205;-62
2023/02/11 13:29:47;;;;;;;2.53;1.02;;;;;;;;;;5012355;28;20540;-63
2023/02/11 13:32:14;;;;;;;4.57;1.30;;;;;;;;;;5012545;28;20174;-63
2023/02/11 13:34:40;;;;;;;2.75;1.00;;;;;;;;;;5012053;28;20677;-63
2023/02/11 13:37:18;;;;;;;4.63;1.20;;;;;;;;;;5017145;28;20182;-63
2023/02/11 13:39:55;;;;;;;4.78;1.20;;;;;;;;;;5020119;28;20657;-62
2023/02/11 13:42:21;;;;;;;3.13;0.98;;;;;;;;;;5015756;28;20460;-61
2023/02/11 13:44:47;;;;;;;4.32;1.13;;;;;;;;;;5013752;28;20307;-62
2023/02/11 13:47:24;;;;;;;4.38;1.25;;;;;;;;;;5012618;28;20554;-63
2023/02/11 13:49:53;;;;;;;5.75;1.40;;;;;;;;;;5012014;28;20147;-62
2023/02/11 13:52:36;;;;;;;7.70;1.27;;;;;;;;;;5012312;28;20175;-63
2023/02/11 13:55:07;;;;;;;2.90;1.17;;;;;;;;;;5011770;28;20218;-62
2023/02/11 13:57:34;;;;;;;4.15;1.40;;;;;;;;;;5012153;28;20167;-63
2023/02/11 14:00:08;;;;;;;5.97;1.30;;;;;;;;;;5012046;28;20197;-61
2023/02/11 14:10:56;;;;;;;6.85;1.58;;;;;;;;;;5015252;28;20238;-62
2023/02/11 14:13:22;;;;;;;6.93;1.55;;;;;;;;;;5015343;28;20171;-60
2023/02/11 14:15:48;;;;;;;3.78;1.20;;;;;;;;;;5015513;28;20181;-61
2023/02/11 14:18:33;;;;;;;5.43;1.73;;;;;;;;;;5014853;28;20174;-62
2023/02/11 14:21:10;;;;;;;4.82;1.42;;;;;;;;;;5015118;28;20270;-63
2023/02/11 14:23:37;;;;;;;4.85;1.42;;;;;;;;;;5015622;28;20166;-63
2023/02/11 14:26:08;;;;;;;8.45;1.45;;;;;;;;;;5015095;28;20178;-62
2023/02/11 14:28:34;;;;;;;5.93;1.30;;;;;;;;;;5015096;28;20197;-63
2023/02/11 14:31:10;;;;;;;7.43;1.50;;;;;;;;;;5014981;28;20163;-62
2023/02/11 14:33:46;;;;;;;6.38;1.45;;;;;;;;;;5014753;28;20645;-61
2023/02/11 14:36:18;;;;;;;3.10;0.95;;;;;;;;;;5015101;28;20237;-63
2023/02/11 14:39:02;;;;;;;6.32;1.35;;;;;;;;;;5015529;28;20151;-60
2023/02/11 14:41:50;;;;;;;5.85;1.38;;;;;;;;;;5015337;28;20181;-61
2023/02/11 14:44:15;;;;;;;6.47;1.45;;;;;;;;;;5015000;28;20155;-61
2023/02/11 14:46:45;;;;;;;6.05;1.30;;;;;;;;;;5014846;28;20456;-63
2023/02/11 14:49:16;;;;;;;10.98;1.42;;;;;;;;;;5014686;28;20263;-63
2023/02/11 14:51:42;;;;;;;9.18;1.58;;;;;;;;;;5014515;28;20574;-62
2023/02/11 14:54:20;;;;;;;5.45;1.70;;;;;;;;;;5014505;28;20232;-63
2023/02/11 14:56:46;;;;;;;6.15;1.40;;;;;;;;;;5014723;28;20242;-63